createdAt,value
2022-12-13T00:02:11.437Z,20.33
2022-12-13T00:07:12.286Z,22.77
2022-12-13T00:12:13.101Z,20.55
2022-12-13T00:17:15.260Z,24.98
2022-12-13T00:22:16.833Z,22.90
2022-12-13T00:27:17.617Z,24.33
2022-12-13T00:32:19.860Z,18.38
2022-12-13T00:37:20.727Z,26.10
2022-12-13T00:42:21.677Z,20.50
2022-12-13T00:47:23.859Z,24.23
2022-12-13T00:52:24.704Z,20.30
2022-12-13T00:57:25.508Z,24.35
2022-12-13T01:02:27.863Z,22.00
2022-12-13T01:07:28.702Z,22.63
2022-12-13T01:12:29.547Z,21.83
2022-12-13T01:17:31.764Z,24.17
2022-12-13T01:22:32.551Z,22.80
2022-12-13T01:27:33.601Z,21.05
2022-12-13T01:32:36.105Z,24.20
2022-12-13T01:37:37.529Z,19.60
2022-12-13T01:42:39.130Z,17.15
2022-12-13T01:47:45.842Z,20.00
2022-12-13T01:52:47.652Z,25.30
2022-12-13T01:57:52.877Z,21.63
2022-12-13T02:02:58.640Z,21.02
2022-12-13T02:08:01.207Z,19.70
2022-12-13T02:13:02.149Z,24.08
2022-12-13T02:18:26.309Z,22.45
2022-12-13T02:23:55.335Z,25.33
2022-12-13T02:29:29.997Z,18.58
2022-12-13T02:34:37.870Z,19.05
2022-12-13T02:39:43.216Z,19.17
2022-12-13T02:44:52.187Z,19.60
2022-12-13T02:50:00.121Z,15.63
2022-12-13T02:55:01.030Z,20.15
2022-12-13T03:00:06.757Z,20.02
2022-12-13T03:05:39.104Z,22.77
2022-12-13T03:10:48.790Z,22.73
2022-12-13T03:15:56.836Z,24.45
2022-12-13T03:21:00.971Z,24.83
2022-12-13T03:26:05.940Z,20.60
2022-12-13T03:31:08.051Z,24.98
2022-12-13T03:36:11.503Z,29.58
2022-12-13T03:41:16.191Z,23.85
2022-12-13T03:46:17.373Z,22.13
2022-12-13T03:51:19.575Z,24.45
2022-12-13T03:56:20.366Z,25.67
2022-12-13T04:01:22.227Z,24.40
2022-12-13T04:06:28.584Z,23.85
2022-12-13T04:12:04.368Z,23.50
2022-12-13T04:17:05.480Z,24.65
2022-12-13T04:22:07.709Z,24.77
2022-12-13T04:27:08.626Z,24.85
2022-12-13T04:32:27.036Z,23.17
2022-12-13T04:37:29.662Z,24.67
2022-12-13T04:42:31.564Z,25.90
2022-12-13T04:47:32.393Z,30.13
2022-12-13T04:52:34.615Z,28.60
2022-12-13T04:57:35.584Z,28.92
2022-12-13T05:02:36.433Z,30.40
2022-12-13T05:07:42.297Z,29.17
2022-12-13T05:12:43.828Z,25.88
2022-12-13T05:17:44.634Z,26.90
2022-12-13T05:22:46.769Z,26.42
2022-12-13T05:27:47.679Z,26.50
2022-12-13T05:32:48.442Z,27.90
2022-12-13T05:37:53.492Z,29.10
2022-12-13T05:43:01.169Z,27.45
2022-12-13T05:48:02.626Z,30.92
2022-12-13T05:53:06.454Z,29.42
2022-12-13T05:58:13.419Z,31.35
2022-12-13T06:03:14.395Z,32.72
2022-12-13T06:08:24.803Z,31.52
2022-12-13T06:13:31.924Z,26.45
2022-12-13T06:18:34.628Z,28.98
2022-12-13T06:23:37.339Z,29.08
2022-12-13T06:28:38.220Z,30.05
2022-12-13T06:33:39.098Z,30.10
2022-12-13T06:38:43.066Z,34.60
2022-12-13T06:43:46.580Z,28.92
2022-12-13T06:48:47.451Z,33.63
2022-12-13T06:53:49.677Z,29.88
2022-12-13T06:58:50.505Z,33.45
2022-12-13T07:03:51.333Z,35.83
2022-12-13T07:08:55.845Z,34.70
2022-12-13T07:13:57.436Z,34.45
2022-12-13T07:19:01.085Z,40.58
2022-12-13T07:24:03.716Z,32.40
2022-12-13T07:29:11.337Z,35.13
2022-12-13T07:34:15.577Z,31.23
2022-12-13T07:39:18.104Z,32.22
2022-12-13T07:44:20.258Z,32.92
2022-12-13T07:49:21.395Z,28.73
2022-12-13T07:54:23.708Z,29.48
2022-12-13T07:59:28.299Z,30.60
2022-12-13T08:04:37.710Z,34.63
2022-12-13T08:09:41.801Z,31.27
2022-12-13T08:14:42.599Z,28.98
2022-12-13T08:19:43.657Z,27.42
2022-12-13T08:24:45.839Z,25.08
2022-12-13T08:29:46.672Z,26.42
2022-12-13T08:34:47.630Z,25.35
2022-12-13T08:39:49.771Z,27.88
2022-12-13T08:44:52.054Z,30.55
2022-12-13T08:49:54.976Z,24.65
2022-12-13T08:54:57.366Z,27.13
2022-12-13T08:59:58.236Z,26.73
2022-12-13T09:05:00.131Z,25.63
2022-12-13T09:10:25.288Z,33.33
2022-12-13T09:15:24.467Z,29.00
2022-12-13T09:20:29.421Z,26.90
2022-12-13T09:25:36.985Z,32.70
2022-12-13T09:30:39.636Z,33.85
2022-12-13T09:35:40.738Z,26.08
2022-12-13T09:40:46.722Z,24.27
2022-12-13T09:45:50.436Z,26.35
2022-12-13T09:51:15.909Z,24.42
2022-12-13T09:56:22.344Z,32.65
2022-12-13T10:01:24.113Z,23.00
2022-12-13T10:06:28.687Z,28.58
2022-12-13T10:11:32.210Z,21.63
2022-12-13T10:16:46.757Z,22.00
2022-12-13T10:21:48.698Z,23.42
2022-12-13T10:26:51.012Z,19.02
2022-12-13T10:31:53.618Z,22.98
2022-12-13T10:36:59.508Z,19.88
2022-12-13T10:42:06.174Z,24.15
2022-12-13T10:47:17.261Z,20.50
2022-12-13T10:52:30.545Z,23.42
2022-12-13T10:57:34.973Z,21.02
2022-12-13T11:02:41.604Z,22.52
2022-12-13T11:07:42.670Z,19.60
2022-12-13T11:12:44.939Z,19.52
2022-12-13T11:17:55.767Z,18.40
2022-12-13T11:23:02.925Z,19.45
2022-12-13T11:28:26.396Z,23.60
2022-12-13T11:33:48.575Z,18.15
2022-12-13T11:39:04.348Z,22.33
2022-12-13T11:44:13.767Z,21.02
2022-12-13T11:49:18.079Z,18.55
2022-12-13T11:54:28.125Z,20.65
2022-12-13T11:59:41.716Z,18.63
2022-12-13T12:04:47.956Z,17.83
2022-12-13T12:09:52.785Z,19.10
2022-12-13T12:15:05.263Z,17.23
2022-12-13T12:20:23.525Z,16.88
2022-12-13T12:25:32.276Z,20.77
2022-12-13T12:30:46.629Z,20.15
2022-12-13T12:35:59.426Z,16.70
2022-12-13T12:41:34.172Z,16.95
2022-12-13T12:47:09.271Z,13.48
2022-12-13T12:52:22.914Z,14.88
2022-12-13T12:57:39.392Z,16.13
2022-12-13T13:02:47.731Z,17.40
2022-12-13T13:07:54.742Z,15.30
2022-12-13T13:13:11.589Z,15.23
2022-12-13T13:18:49.766Z,15.15
2022-12-13T13:24:06.427Z,13.07
2022-12-13T13:29:38.837Z,14.52
2022-12-13T13:34:47.773Z,14.45
2022-12-13T13:40:00.574Z,13.27
2022-12-13T13:45:23.736Z,16.42
2022-12-13T13:51:08.652Z,13.25
2022-12-13T13:56:33.620Z,13.23
2022-12-13T14:02:10.894Z,11.50
2022-12-13T14:07:56.288Z,10.07
2022-12-13T14:13:33.698Z,11.55
2022-12-13T14:19:21.359Z,16.50
2022-12-13T14:24:30.898Z,12.90
2022-12-13T14:29:38.742Z,13.98
2022-12-13T14:34:40.464Z,18.55
2022-12-13T14:39:46.149Z,14.27
2022-12-13T14:44:48.633Z,15.35
2022-12-13T14:49:55.396Z,18.33
2022-12-13T14:54:58.748Z,17.27
2022-12-13T15:00:20.765Z,17.02
2022-12-13T15:05:28.857Z,15.48
2022-12-13T15:10:38.539Z,18.08
2022-12-13T15:15:40.858Z,18.20
2022-12-13T15:20:43.038Z,17.67
2022-12-13T15:25:53.777Z,17.05
2022-12-13T15:30:57.363Z,18.33
2022-12-13T15:36:13.258Z,21.63
2022-12-13T15:41:18.891Z,20.67
2022-12-13T15:46:27.150Z,23.45
2022-12-13T15:51:30.168Z,27.08
2022-12-13T15:56:34.081Z,21.55
2022-12-13T16:01:37.458Z,28.02
2022-12-13T16:06:38.478Z,23.45
2022-12-13T16:11:49.540Z,25.17
2022-12-13T16:16:52.125Z,28.83
2022-12-13T16:21:52.991Z,26.83
2022-12-13T16:26:53.746Z,28.77
2022-12-13T16:32:01.509Z,28.17
2022-12-13T16:37:26.465Z,31.50
2022-12-13T16:42:29.229Z,30.85
2022-12-13T16:47:43.160Z,34.55
2022-12-13T16:52:47.219Z,33.50
2022-12-13T16:57:59.025Z,36.50
2022-12-13T17:03:02.141Z,31.23
2022-12-13T17:08:03.769Z,30.58
2022-12-13T17:13:04.619Z,30.75
2022-12-13T17:18:07.083Z,37.40
2022-12-13T17:23:10.883Z,40.08
2022-12-13T17:28:15.590Z,39.50
2022-12-13T17:33:17.747Z,36.83
2022-12-13T17:38:18.560Z,38.60
2022-12-13T17:43:28.664Z,41.83
2022-12-13T17:48:40.755Z,36.13
2022-12-13T17:53:43.884Z,43.17
2022-12-13T17:58:45.345Z,46.22
2022-12-13T18:03:48.862Z,38.40
2022-12-13T18:08:49.959Z,38.88
2022-12-13T18:13:55.033Z,46.15
2022-12-13T18:18:58.514Z,39.08
2022-12-13T18:24:01.153Z,38.33
2022-12-13T18:29:02.702Z,34.05
2022-12-13T18:34:05.108Z,37.67
2022-12-13T18:39:06.413Z,39.60
2022-12-13T18:44:09.012Z,32.58
2022-12-13T18:49:12.194Z,41.28
2022-12-13T18:54:13.035Z,43.05
2022-12-13T18:59:19.812Z,39.25
2022-12-13T19:04:55.697Z,34.88
2022-12-13T19:09:56.688Z,37.75
2022-12-13T19:14:57.504Z,37.25
2022-12-13T19:20:00.011Z,37.65
2022-12-13T19:25:01.021Z,39.17
2022-12-13T19:30:01.952Z,49.25
2022-12-13T19:35:04.276Z,38.50
2022-12-13T19:40:05.697Z,38.70
2022-12-13T19:45:07.483Z,42.05
2022-12-13T19:50:11.132Z,47.15
2022-12-13T19:55:12.018Z,42.17
2022-12-13T20:00:14.345Z,43.72
2022-12-13T20:05:16.793Z,47.30
2022-12-13T20:10:17.924Z,45.95
2022-12-13T20:15:19.244Z,49.55
2022-12-13T20:20:23.793Z,44.17
2022-12-13T20:25:26.795Z,47.55
2022-12-13T20:30:29.734Z,53.28
2022-12-13T20:35:31.876Z,53.08
2022-12-13T20:40:34.831Z,52.25
2022-12-13T20:45:35.661Z,43.75
2022-12-13T20:50:37.809Z,46.65
2022-12-13T20:55:38.819Z,48.08
2022-12-13T21:00:39.804Z,51.90
2022-12-13T21:05:47.871Z,51.58
2022-12-13T21:10:48.702Z,47.78
2022-12-13T21:15:49.559Z,51.95
2022-12-13T21:20:57.315Z,45.67
2022-12-13T21:25:58.183Z,56.15
2022-12-13T21:31:00.076Z,52.20
2022-12-13T21:36:11.495Z,48.08
2022-12-13T21:41:13.448Z,50.40
2022-12-13T21:46:16.506Z,47.95
2022-12-13T21:51:21.307Z,46.00
2022-12-13T21:56:41.111Z,47.70
2022-12-13T22:02:03.623Z,46.17
2022-12-13T22:07:07.789Z,43.40
2022-12-13T22:12:09.956Z,55.38
2022-12-13T22:17:10.851Z,50.70
2022-12-13T22:22:13.094Z,48.90
2022-12-13T22:27:14.076Z,56.65
2022-12-13T22:32:14.907Z,48.03
2022-12-13T22:37:17.217Z,47.88
2022-12-13T22:42:18.042Z,50.67
2022-12-13T22:47:19.182Z,48.75
2022-12-13T22:52:21.350Z,47.83
2022-12-13T22:57:22.167Z,48.20
2022-12-13T23:02:23.068Z,47.20
2022-12-13T23:07:25.270Z,49.25
2022-12-13T23:12:52.109Z,55.05
2022-12-13T23:17:52.927Z,52.78
2022-12-13T23:22:55.064Z,48.20
2022-12-13T23:27:55.985Z,50.90
2022-12-13T23:32:56.866Z,48.25
2022-12-13T23:37:59.036Z,53.17
2022-12-13T23:42:59.875Z,49.83
2022-12-13T23:48:00.663Z,45.95
2022-12-13T23:53:03.259Z,54.10
2022-12-13T23:58:06.300Z,43.63
